首页
METAR-TAF:

METAR-TAF

机场 :

杰克逊维尔国际机场

杰克逊维尔, 佛罗里达州, 美国

纬度: 30-29-40N, 经度: 081-41-36W, 海拔: 9米

当前天气观测

该预报发布于46分钟前的22:56 UTC
风速10节,风向东转东南
温度 29°C
湿度 52%
气压 1014 hPa
能見度: 16.1公里
少量云层高于5000英尺
少量云层高于8000英尺
少量云层高于25000英尺

METAR: KJAX 202256Z 12010KT 10SM FEW050 FEW080 FEW250 29/18 A2995 RMK AO2 SLP141 T02890178

时间: 19:42 (23:42 UTC)

预报

该预报发布于17分钟前的23:25 UTC
预报有效从21日的 00点(UTC)到 21日的 24点(UTC)
风速8节,风向东南
能見度: 10公里
散云层高于5000英尺
从 21日的 0200点(UTC)
风速3节,风向
能見度: 10公里
天空无云
从 21日的 1300点(UTC)
风速6节,风向西南
能見度: 10公里
少量云层高于1500英尺
从 21日的 1900点(UTC)
风速10节,风向东转东南
能見度: 10公里
散云层高于5000英尺

TAF: KJAX 202325Z 2100/2124 13008KT P6SM SCT050 FM210200 19003KT P6SM SKC FM211300 22006KT P6SM FEW015 FM211900 11010KT P6SM SCT050

超过4000个机场的气象观测和天气预报(METAR&TAF报告)。

可查询的气象台以黄色和红色小点在地图上表示。

将鼠标移到小点上方,可查看气象台名称。

然后点击查看天气观测和预报。

如需切换地图:点击带黑十字的绿色按钮放大地图;点击带横线的绿色按钮缩小地图;或者点击绿色箭头查看邻近地区的地图。


METAR-TAF: